createdAt,value
2018-03-15T00:00:01.910Z,2.75
2018-03-15T00:01:01.909Z,2.71
2018-03-15T00:02:01.904Z,2.65
2018-03-15T00:03:01.877Z,2.74
2018-03-15T00:04:01.866Z,2.72
2018-03-15T00:05:01.852Z,2.77
2018-03-15T00:06:01.839Z,2.68
2018-03-15T00:07:01.830Z,2.68
2018-03-15T00:08:01.815Z,2.64
2018-03-15T00:09:01.801Z,2.65
2018-03-15T00:10:01.786Z,2.65
2018-03-15T00:11:01.774Z,2.54
2018-03-15T00:12:01.776Z,2.53
2018-03-15T00:13:01.753Z,2.65
2018-03-15T00:14:01.739Z,2.64
2018-03-15T00:15:01.733Z,2.53
2018-03-15T00:16:01.725Z,2.60
2018-03-15T00:17:01.729Z,2.57
2018-03-15T00:18:01.725Z,2.54
2018-03-15T00:19:01.681Z,2.53
2018-03-15T00:20:01.697Z,2.50
2018-03-15T00:21:01.654Z,2.53
2018-03-15T00:22:01.647Z,2.54
2018-03-15T00:23:01.627Z,2.49
2018-03-15T00:24:01.632Z,2.49
2018-03-15T00:25:01.607Z,2.56
2018-03-15T00:26:01.608Z,2.56
2018-03-15T00:27:01.588Z,2.47
2018-03-15T00:28:01.567Z,2.53
2018-03-15T00:29:01.566Z,2.53
2018-03-15T00:30:01.539Z,2.60
2018-03-15T00:31:01.527Z,2.57
2018-03-15T00:32:01.520Z,2.56
2018-03-15T00:33:01.513Z,2.54
2018-03-15T00:34:01.497Z,2.54
2018-03-15T00:35:01.477Z,2.50
2018-03-15T00:36:01.469Z,2.56
2018-03-15T00:37:01.465Z,2.51
2018-03-15T00:38:01.459Z,2.49
2018-03-15T00:39:01.426Z,2.50
2018-03-15T00:40:01.438Z,2.50
2018-03-15T00:41:01.401Z,2.50
2018-03-15T00:42:01.398Z,2.50
2018-03-15T00:43:01.393Z,2.49
2018-03-15T00:44:01.371Z,2.50
2018-03-15T00:45:01.357Z,2.49
2018-03-15T00:46:01.348Z,2.54
2018-03-15T00:47:01.332Z,2.54
2018-03-15T00:48:01.337Z,2.50
2018-03-15T00:49:01.304Z,2.61
2018-03-15T00:50:01.289Z,2.51
2018-03-15T00:51:01.287Z,2.53
2018-03-15T00:52:01.264Z,2.51
2018-03-15T00:53:01.258Z,2.49
2018-03-15T00:54:01.264Z,2.49
2018-03-15T00:55:01.230Z,2.54
2018-03-15T00:56:01.218Z,2.54
2018-03-15T00:57:01.202Z,2.56
2018-03-15T00:58:01.190Z,2.47
2018-03-15T00:59:01.195Z,2.54
2018-03-15T01:00:01.177Z,2.56
2018-03-15T01:01:01.163Z,2.57
2018-03-15T01:02:01.143Z,2.57
2018-03-15T01:03:01.152Z,2.54
2018-03-15T01:04:01.121Z,2.56
2018-03-15T01:05:01.106Z,2.53
2018-03-15T01:06:01.111Z,2.49
2018-03-15T01:07:01.076Z,2.57
2018-03-15T01:08:01.065Z,2.53
2018-03-15T01:09:01.056Z,2.64
2018-03-15T01:10:01.040Z,2.51
2018-03-15T01:11:01.041Z,2.54
2018-03-15T01:12:01.018Z,2.53
2018-03-15T01:13:01.002Z,2.42
2018-03-15T01:14:00.989Z,2.42
2018-03-15T01:15:00.982Z,2.46
2018-03-15T01:16:00.963Z,2.50
2018-03-15T01:17:00.971Z,2.44
2018-03-15T01:18:03.815Z,2.38
2018-03-15T01:19:00.950Z,2.49
2018-03-15T01:20:00.911Z,2.50
2018-03-15T01:21:00.902Z,2.39
2018-03-15T01:22:00.888Z,2.51
2018-03-15T01:23:00.879Z,2.49
2018-03-15T01:24:00.862Z,2.50
2018-03-15T01:25:00.851Z,2.47
2018-03-15T01:26:00.852Z,2.53
2018-03-15T01:27:00.861Z,2.46
2018-03-15T01:28:00.823Z,2.44
2018-03-15T01:29:00.835Z,2.49
2018-03-15T01:30:00.787Z,2.35
2018-03-15T01:31:00.778Z,2.44
2018-03-15T01:32:00.772Z,2.49
2018-03-15T01:33:00.747Z,2.47
2018-03-15T01:34:00.742Z,2.47
2018-03-15T01:35:00.724Z,2.49
2018-03-15T01:36:00.714Z,2.38
2018-03-15T01:37:00.703Z,2.51
2018-03-15T01:38:00.688Z,2.33
2018-03-15T01:39:00.676Z,2.36
2018-03-15T01:40:00.665Z,2.36
2018-03-15T01:41:00.652Z,2.36
2018-03-15T01:42:00.638Z,2.35
2018-03-15T01:43:00.624Z,2.39
2018-03-15T01:44:00.609Z,2.28
2018-03-15T01:45:00.602Z,2.28
2018-03-15T01:46:00.586Z,2.32
2018-03-15T01:47:00.582Z,2.32
2018-03-15T01:48:00.563Z,2.32
2018-03-15T01:49:00.553Z,2.42
2018-03-15T01:50:00.536Z,2.36
2018-03-15T01:51:00.526Z,2.33
2018-03-15T01:52:00.511Z,2.36
2018-03-15T01:53:00.499Z,2.42
2018-03-15T01:54:00.485Z,2.38
2018-03-15T01:55:00.472Z,2.39
2018-03-15T01:56:00.468Z,2.36
2018-03-15T01:57:00.447Z,2.36
2018-03-15T01:58:00.441Z,2.28
2018-03-15T01:59:00.420Z,2.29
2018-03-15T02:00:00.433Z,2.31
2018-03-15T02:01:00.413Z,2.42
2018-03-15T02:02:00.387Z,2.42
2018-03-15T02:03:00.393Z,2.39
2018-03-15T02:04:00.367Z,2.33
2018-03-15T02:05:00.356Z,2.36
2018-03-15T02:06:00.346Z,2.42
2018-03-15T02:07:00.322Z,2.46
2018-03-15T02:08:00.330Z,2.51
2018-03-15T02:09:00.295Z,2.42
2018-03-15T02:10:00.298Z,2.50
2018-03-15T02:11:00.308Z,2.46
2018-03-15T02:12:00.264Z,2.36
2018-03-15T02:13:00.246Z,2.35
2018-03-15T02:14:00.236Z,2.54
2018-03-15T02:15:00.248Z,2.49
2018-03-15T02:16:00.217Z,2.49
2018-03-15T02:17:00.194Z,2.49
2018-03-15T02:18:00.186Z,2.54
2018-03-15T02:19:00.167Z,2.46
2018-03-15T02:20:00.184Z,2.51
2018-03-15T02:21:00.154Z,2.47
2018-03-15T02:22:00.191Z,2.43
2018-03-15T02:23:00.123Z,2.46
2018-03-15T02:24:00.108Z,2.50
2018-03-15T02:25:00.095Z,2.50
2018-03-15T02:26:00.081Z,2.50
2018-03-15T02:27:00.068Z,2.49
2018-03-15T02:28:00.056Z,2.46
2018-03-15T02:29:00.056Z,2.49
2018-03-15T02:30:00.033Z,2.36
2018-03-15T02:31:00.026Z,2.42
2018-03-15T02:32:00.005Z,2.47
2018-03-15T02:32:59.996Z,2.33
2018-03-15T02:33:59.978Z,2.49
2018-03-15T02:34:59.969Z,2.43
2018-03-15T02:35:59.951Z,2.42
2018-03-15T02:36:59.943Z,2.49
2018-03-15T02:37:59.936Z,2.56
2018-03-15T02:38:59.917Z,2.54
2018-03-15T02:39:59.900Z,2.43
2018-03-15T02:40:59.893Z,2.47
2018-03-15T02:41:59.880Z,2.50
2018-03-15T02:42:59.865Z,2.46
2018-03-15T02:43:59.852Z,2.49
2018-03-15T02:44:59.850Z,2.51
2018-03-15T02:45:59.842Z,2.43
2018-03-15T02:46:59.828Z,2.51
2018-03-15T02:47:59.821Z,2.51
2018-03-15T02:48:59.820Z,2.44
2018-03-15T02:49:59.780Z,2.51
2018-03-15T02:50:59.792Z,2.51
2018-03-15T02:51:59.782Z,2.46
2018-03-15T02:52:59.753Z,2.56
2018-03-15T02:53:59.726Z,2.47
2018-03-15T02:54:59.720Z,2.39
2018-03-15T02:55:59.716Z,2.53
2018-03-15T02:56:59.685Z,2.51
2018-03-15T02:57:59.677Z,2.54
2018-03-15T02:58:59.673Z,2.46
2018-03-15T02:59:59.647Z,2.47
2018-03-15T03:00:59.637Z,2.51
2018-03-15T03:01:59.630Z,2.50
2018-03-15T03:02:59.613Z,2.49
2018-03-15T03:03:59.601Z,2.51
2018-03-15T03:06:57.803Z,2.50
2018-03-15T03:07:33.723Z,2.47
2018-03-15T03:08:33.694Z,2.51
2018-03-15T03:09:33.667Z,2.47
2018-03-15T03:10:33.642Z,2.38
2018-03-15T03:11:33.619Z,2.35
2018-03-15T03:12:33.648Z,2.36
2018-03-15T03:13:33.599Z,2.43
2018-03-15T03:14:33.603Z,2.49
2018-03-15T03:15:33.592Z,2.35
2018-03-15T03:16:33.573Z,2.46
2018-03-15T03:17:33.546Z,2.42
2018-03-15T03:18:33.559Z,2.42
2018-03-15T03:19:33.547Z,2.28
2018-03-15T03:20:33.508Z,2.32
2018-03-15T03:21:33.501Z,2.36
2018-03-15T03:22:33.475Z,2.35
2018-03-15T03:23:33.474Z,2.24
2018-03-15T03:24:33.460Z,2.38
2018-03-15T03:25:33.444Z,2.29
2018-03-15T03:26:33.456Z,2.36
2018-03-15T03:27:33.420Z,2.32
2018-03-15T03:28:33.403Z,2.33
2018-03-15T03:29:33.391Z,2.44
2018-03-15T03:30:33.379Z,2.38
2018-03-15T03:31:33.385Z,2.32
2018-03-15T03:32:33.346Z,2.26
2018-03-15T03:33:33.339Z,2.38
2018-03-15T03:34:33.332Z,2.31
2018-03-15T03:35:33.316Z,2.43
2018-03-15T03:36:33.298Z,2.39
2018-03-15T03:37:33.289Z,2.31
2018-03-15T03:38:33.294Z,2.32
2018-03-15T03:39:33.263Z,2.35
2018-03-15T03:40:33.259Z,2.31
2018-03-15T03:41:33.237Z,2.35
2018-03-15T03:42:33.225Z,2.39
2018-03-15T03:43:33.213Z,2.36
2018-03-15T03:44:33.205Z,2.33
2018-03-15T03:45:33.190Z,2.43
2018-03-15T03:46:33.170Z,2.28
2018-03-15T03:47:33.169Z,2.31
2018-03-15T03:48:33.158Z,2.22
2018-03-15T03:49:33.156Z,2.32
2018-03-15T03:50:33.119Z,2.25
2018-03-15T03:51:33.110Z,2.26
2018-03-15T03:52:33.096Z,2.24
2018-03-15T03:53:33.090Z,2.26
2018-03-15T03:54:33.098Z,2.28
2018-03-15T03:55:33.068Z,2.18
2018-03-15T03:56:33.045Z,2.33
2018-03-15T03:57:33.029Z,2.22
2018-03-15T03:58:33.017Z,2.28
2018-03-15T03:59:33.006Z,2.24
2018-03-15T04:00:33.004Z,2.26
2018-03-15T04:01:32.981Z,2.17
2018-03-15T04:02:32.970Z,2.25
2018-03-15T04:03:32.958Z,2.26
2018-03-15T04:04:32.942Z,2.29
2018-03-15T04:05:32.927Z,2.29
2018-03-15T04:06:32.918Z,2.32
2018-03-15T04:07:32.905Z,2.26
2018-03-15T04:08:32.893Z,2.25
2018-03-15T04:09:32.875Z,2.39
2018-03-15T04:10:32.866Z,2.31
2018-03-15T04:11:32.851Z,2.49
2018-03-15T04:12:32.836Z,2.38
2018-03-15T04:13:32.830Z,2.26
2018-03-15T04:14:32.809Z,2.33
2018-03-15T04:15:32.805Z,2.36
2018-03-15T04:16:32.800Z,2.36
2018-03-15T04:17:32.779Z,2.29
2018-03-15T04:18:32.763Z,2.35
2018-03-15T04:19:32.745Z,2.35
2018-03-15T04:20:32.738Z,2.44
2018-03-15T04:21:32.733Z,2.31
2018-03-15T04:22:32.711Z,2.35
2018-03-15T04:23:32.705Z,2.32
2018-03-15T04:24:32.691Z,2.35
2018-03-15T04:25:32.668Z,2.38
2018-03-15T04:26:32.692Z,2.39
2018-03-15T04:27:32.647Z,2.35
2018-03-15T04:28:32.635Z,2.39
2018-03-15T04:29:32.621Z,2.35
2018-03-15T04:30:32.604Z,2.35
2018-03-15T04:31:32.595Z,2.29
2018-03-15T04:32:32.582Z,2.39
2018-03-15T04:33:32.574Z,2.31
2018-03-15T04:34:32.556Z,2.31
2018-03-15T04:35:32.539Z,2.38
2018-03-15T04:36:32.531Z,2.36
2018-03-15T04:37:32.530Z,2.38
2018-03-15T04:38:32.504Z,2.28
2018-03-15T04:39:32.490Z,2.35
2018-03-15T04:40:32.476Z,2.35
2018-03-15T04:41:32.465Z,2.42
2018-03-15T04:42:32.455Z,2.36
2018-03-15T04:43:32.440Z,2.36
2018-03-15T04:44:32.426Z,2.31
2018-03-15T04:45:32.415Z,2.36
2018-03-15T04:46:32.404Z,2.35
2018-03-15T04:47:32.396Z,2.39
2018-03-15T04:48:32.381Z,2.36
2018-03-15T04:49:32.363Z,2.31
2018-03-15T04:50:32.368Z,2.24
2018-03-15T04:51:32.341Z,2.26
2018-03-15T04:52:32.333Z,2.26
2018-03-15T04:53:32.316Z,2.26
2018-03-15T04:54:32.303Z,2.29
2018-03-15T04:55:32.285Z,2.36
2018-03-15T04:56:32.273Z,2.31
2018-03-15T04:57:32.277Z,2.32
2018-03-15T04:58:32.269Z,2.31
2018-03-15T04:59:32.240Z,2.39
2018-03-15T05:00:32.221Z,2.35
2018-03-15T05:01:32.204Z,2.33
2018-03-15T05:02:32.340Z,2.28
2018-03-15T05:03:32.196Z,2.31
2018-03-15T05:04:32.172Z,2.32
2018-03-15T05:05:32.163Z,2.32
2018-03-15T05:06:32.146Z,2.35
2018-03-15T05:07:32.134Z,2.44
2018-03-15T05:08:32.129Z,2.43
2018-03-15T05:09:32.130Z,2.35
2018-03-15T05:10:32.110Z,2.35
2018-03-15T05:11:32.110Z,2.36
2018-03-15T05:12:32.067Z,2.28
2018-03-15T05:13:32.064Z,2.38
2018-03-15T05:14:32.044Z,2.38
2018-03-15T05:15:32.029Z,2.36
2018-03-15T05:16:32.015Z,2.38
2018-03-15T05:17:32.006Z,2.26
2018-03-15T05:18:31.987Z,2.38
2018-03-15T05:19:31.976Z,2.29
2018-03-15T05:20:31.970Z,2.35
2018-03-15T05:21:31.952Z,2.29
2018-03-15T05:22:31.941Z,2.26
2018-03-15T05:23:31.929Z,2.36
2018-03-15T05:24:31.929Z,2.35
2018-03-15T05:25:31.927Z,2.31
2018-03-15T05:26:31.914Z,2.36
2018-03-15T05:27:31.897Z,2.36
2018-03-15T05:28:31.862Z,2.35
2018-03-15T05:29:31.868Z,2.43
2018-03-15T05:30:31.845Z,2.38
2018-03-15T05:31:31.827Z,2.36
2018-03-15T05:32:31.817Z,2.32
2018-03-15T05:33:31.814Z,2.33
2018-03-15T05:34:31.809Z,2.39
2018-03-15T05:35:31.776Z,2.29
2018-03-15T05:36:31.762Z,2.42
2018-03-15T05:37:31.742Z,2.39
2018-03-15T05:38:31.732Z,2.39
2018-03-15T05:39:31.725Z,2.35
2018-03-15T05:40:31.721Z,2.43
2018-03-15T05:41:31.693Z,2.32
2018-03-15T05:42:31.692Z,2.29
2018-03-15T05:43:31.664Z,2.29
2018-03-15T05:44:31.658Z,2.24
2018-03-15T05:45:31.643Z,2.36
2018-03-15T05:46:31.631Z,2.31
2018-03-15T05:47:31.617Z,2.28
2018-03-15T05:48:31.603Z,2.33
2018-03-15T05:49:31.589Z,2.39
2018-03-15T05:50:31.586Z,2.38
2018-03-15T05:51:31.565Z,2.39
2018-03-15T05:52:31.553Z,2.36
2018-03-15T05:53:31.539Z,2.29
2018-03-15T05:54:31.525Z,2.39
2018-03-15T05:55:31.518Z,2.32
2018-03-15T05:56:31.508Z,2.42
2018-03-15T05:57:31.503Z,2.42
2018-03-15T05:58:31.474Z,2.36
2018-03-15T05:59:31.462Z,2.43
2018-03-15T06:00:31.468Z,2.49
2018-03-15T06:01:31.437Z,2.49
2018-03-15T06:02:31.426Z,2.51
2018-03-15T06:03:31.423Z,2.51
2018-03-15T06:04:31.401Z,2.49
2018-03-15T06:05:31.399Z,2.49
2018-03-15T06:06:31.398Z,2.56
2018-03-15T06:07:31.399Z,2.53
2018-03-15T06:08:31.363Z,2.46
2018-03-15T06:09:31.332Z,2.61
2018-03-15T06:10:31.321Z,2.56
2018-03-15T06:11:31.336Z,2.50
2018-03-15T06:12:31.303Z,2.50
2018-03-15T06:13:31.283Z,2.50
2018-03-15T06:14:31.274Z,2.56
2018-03-15T06:15:31.277Z,2.64
2018-03-15T06:16:31.258Z,2.53
2018-03-15T06:17:31.228Z,2.56
2018-03-15T06:18:31.224Z,2.69
2018-03-15T06:19:31.208Z,2.68
2018-03-15T06:20:31.196Z,2.72
2018-03-15T06:21:31.182Z,2.60
2018-03-15T06:22:31.175Z,2.65
2018-03-15T06:23:31.177Z,2.65
2018-03-15T06:24:31.145Z,2.72
2018-03-15T06:25:31.128Z,2.77
2018-03-15T06:26:31.139Z,2.79
2018-03-15T06:27:31.108Z,2.87
2018-03-15T06:28:31.160Z,2.89
2018-03-15T06:29:31.079Z,2.87
2018-03-15T06:30:31.069Z,2.95
2018-03-15T06:31:31.056Z,2.97
2018-03-15T06:32:31.045Z,3.05
2018-03-15T06:33:31.035Z,3.03
2018-03-15T06:34:31.018Z,3.08
2018-03-15T06:35:31.011Z,3.04
2018-03-15T06:36:31.020Z,3.07
2018-03-15T06:37:30.998Z,3.08
2018-03-15T06:38:30.969Z,3.13
2018-03-15T06:39:30.963Z,3.10
2018-03-15T06:40:30.946Z,3.13
2018-03-15T06:41:30.937Z,3.19
2018-03-15T06:42:30.920Z,3.21
2018-03-15T06:43:30.913Z,3.26
2018-03-15T06:44:30.899Z,3.28
2018-03-15T06:45:30.887Z,3.34
2018-03-15T06:46:30.877Z,3.37
2018-03-15T06:47:30.858Z,3.55
2018-03-15T06:48:30.852Z,3.50
2018-03-15T06:49:30.834Z,3.62
2018-03-15T06:50:30.838Z,3.68
2018-03-15T06:51:30.812Z,3.74
2018-03-15T06:52:30.835Z,3.68
2018-03-15T06:53:30.788Z,3.77
2018-03-15T06:54:30.781Z,3.74
2018-03-15T06:55:30.793Z,3.76
2018-03-15T06:56:30.761Z,3.78
2018-03-15T06:57:30.758Z,3.74
2018-03-15T06:58:30.762Z,3.78
2018-03-15T06:59:30.720Z,3.86
2018-03-15T07:00:30.734Z,3.86
2018-03-15T07:01:30.698Z,3.74
2018-03-15T07:02:30.698Z,3.84
2018-03-15T07:03:30.711Z,3.86
2018-03-15T07:04:30.667Z,3.92
2018-03-15T07:05:30.656Z,3.84
2018-03-15T07:06:30.644Z,3.86
2018-03-15T07:07:30.631Z,3.87
2018-03-15T07:08:30.621Z,3.88
2018-03-15T07:09:30.619Z,4.01
2018-03-15T07:10:30.665Z,4.01
2018-03-15T07:11:30.600Z,4.01
2018-03-15T07:12:30.570Z,4.04
2018-03-15T07:13:30.558Z,4.04
2018-03-15T07:14:30.554Z,4.02
2018-03-15T07:15:30.535Z,4.06
2018-03-15T07:16:30.539Z,4.05
2018-03-15T07:17:30.522Z,4.19
2018-03-15T07:18:30.510Z,4.14
2018-03-15T07:19:30.499Z,4.16
2018-03-15T07:20:30.496Z,4.17
2018-03-15T07:21:30.585Z,4.20
2018-03-15T07:22:30.459Z,4.19
2018-03-15T07:23:30.454Z,4.22
2018-03-15T07:24:30.439Z,4.23
2018-03-15T07:25:30.436Z,4.23
2018-03-15T07:26:30.422Z,4.35
2018-03-15T07:27:30.410Z,4.28
2018-03-15T07:28:30.395Z,4.35
2018-03-15T07:29:30.384Z,4.32
2018-03-15T07:30:30.426Z,4.23
2018-03-15T07:31:30.373Z,4.41
2018-03-15T07:32:30.360Z,4.34
2018-03-15T07:33:30.345Z,4.45
2018-03-15T07:34:30.333Z,4.45
2018-03-15T07:35:30.320Z,4.48
2018-03-15T07:36:30.311Z,4.55
2018-03-15T07:37:30.300Z,4.58
2018-03-15T07:38:30.296Z,4.58
2018-03-15T07:39:30.295Z,4.63
2018-03-15T07:40:30.286Z,4.55
2018-03-15T07:41:30.257Z,4.62
2018-03-15T07:42:30.251Z,4.56
2018-03-15T07:43:30.237Z,4.66
2018-03-15T07:44:30.222Z,4.70
2018-03-15T07:45:30.218Z,4.80
2018-03-15T07:46:30.201Z,4.82
2018-03-15T07:47:30.206Z,4.86
2018-03-15T07:48:30.184Z,4.80
2018-03-15T07:49:30.167Z,4.86
2018-03-15T07:50:30.576Z,4.96
2018-03-15T07:51:30.185Z,5.00
2018-03-15T07:52:30.159Z,5.04
2018-03-15T07:53:30.126Z,5.08
2018-03-15T07:54:30.119Z,5.04
2018-03-15T07:55:30.111Z,5.12
2018-03-15T07:56:30.116Z,5.21
2018-03-15T07:57:30.098Z,5.15
2018-03-15T07:58:30.077Z,5.21
2018-03-15T07:59:30.063Z,5.23
2018-03-15T08:00:30.066Z,5.30
2018-03-15T08:01:30.040Z,5.38
2018-03-15T08:02:30.032Z,5.32
2018-03-15T08:03:30.019Z,5.38
2018-03-15T08:04:30.014Z,5.44
2018-03-15T08:05:29.998Z,5.57
2018-03-15T08:06:29.991Z,5.65
2018-03-15T08:07:29.989Z,5.61
2018-03-15T08:08:29.969Z,5.59
2018-03-15T08:09:29.956Z,5.51
2018-03-15T08:10:29.946Z,5.50
2018-03-15T08:11:29.956Z,5.48
2018-03-15T08:12:29.928Z,5.59
2018-03-15T08:13:29.931Z,5.69
2018-03-15T08:14:29.928Z,5.61
2018-03-15T08:15:29.900Z,5.69
2018-03-15T08:16:29.886Z,5.80
2018-03-15T08:17:29.877Z,5.80
2018-03-15T08:18:29.862Z,5.82
2018-03-15T08:19:29.873Z,5.76
2018-03-15T08:20:29.851Z,5.93
2018-03-15T08:21:29.850Z,6.01
2018-03-15T08:22:29.824Z,6.01
2018-03-15T08:23:29.811Z,5.91
2018-03-15T08:24:29.805Z,5.91
2018-03-15T08:25:29.808Z,6.02
2018-03-15T08:26:29.789Z,5.90
2018-03-15T08:27:29.792Z,5.93
2018-03-15T08:28:29.831Z,6.02
2018-03-15T08:29:29.757Z,6.09
2018-03-15T08:30:29.752Z,6.14
2018-03-15T08:31:29.738Z,6.26
2018-03-15T08:32:29.731Z,6.30
2018-03-15T08:33:29.718Z,6.22
2018-03-15T08:34:29.715Z,6.31
2018-03-15T08:35:29.756Z,6.39
2018-03-15T08:36:29.690Z,6.41
2018-03-15T08:37:29.676Z,6.39
2018-03-15T08:38:29.677Z,6.54
2018-03-15T08:39:29.661Z,6.69
2018-03-15T08:40:29.683Z,6.87
2018-03-15T08:41:29.661Z,7.07
2018-03-15T08:42:29.639Z,7.05
2018-03-15T08:43:29.620Z,7.20
2018-03-15T08:44:29.753Z,7.15
2018-03-15T08:45:29.608Z,7.15
2018-03-15T08:46:29.598Z,7.18
2018-03-15T08:47:29.588Z,7.31
2018-03-15T08:48:29.580Z,7.50
2018-03-15T08:49:29.565Z,7.87
2018-03-15T08:50:29.556Z,8.16
2018-03-15T08:51:29.548Z,8.46
2018-03-15T08:52:29.540Z,8.73
2018-03-15T08:53:29.538Z,8.66
2018-03-15T08:54:29.525Z,8.42
2018-03-15T08:55:29.527Z,8.00
2018-03-15T08:56:29.550Z,7.97
2018-03-15T08:57:29.500Z,8.03
2018-03-15T08:58:29.525Z,8.30
2018-03-15T08:59:29.498Z,8.23
2018-03-15T09:00:29.519Z,8.53
2018-03-15T09:01:29.473Z,8.79
2018-03-15T09:02:29.465Z,8.81
2018-03-15T09:03:29.459Z,8.91
2018-03-15T09:04:29.447Z,8.87
2018-03-15T09:05:29.443Z,9.11
2018-03-15T09:06:29.442Z,8.61
2018-03-15T09:07:29.440Z,8.67
2018-03-15T09:08:29.448Z,9.14
2018-03-15T09:09:29.436Z,9.39
2018-03-15T09:10:29.415Z,9.66
2018-03-15T09:11:29.409Z,9.43
2018-03-15T09:12:29.404Z,9.36
2018-03-15T09:13:29.397Z,9.65
2018-03-15T09:14:29.398Z,9.79
2018-03-15T09:15:29.410Z,9.62
2018-03-15T09:16:29.382Z,9.43
2018-03-15T09:17:29.406Z,9.62
2018-03-15T09:18:29.422Z,9.56
2018-03-15T09:19:29.373Z,9.76
2018-03-15T09:20:29.365Z,9.56
2018-03-15T09:21:29.358Z,9.39
2018-03-15T09:22:29.368Z,9.22
2018-03-15T09:23:29.350Z,9.22
2018-03-15T09:24:29.355Z,9.02
2018-03-15T09:25:29.354Z,9.03
2018-03-15T09:26:29.349Z,8.78
2018-03-15T09:27:29.346Z,9.22
2018-03-15T09:28:29.331Z,9.39
2018-03-15T09:29:29.336Z,9.50
2018-03-15T09:30:29.328Z,9.41
2018-03-15T09:31:29.342Z,9.47
2018-03-15T09:32:29.326Z,9.54
2018-03-15T09:33:29.338Z,9.31
2018-03-15T09:34:29.377Z,9.22
2018-03-15T09:35:29.314Z,9.31
2018-03-15T09:36:29.321Z,9.61
2018-03-15T09:37:29.310Z,9.61
2018-03-15T09:38:29.303Z,9.54
2018-03-15T09:39:29.309Z,9.62
2018-03-15T09:40:29.345Z,9.64
2018-03-15T09:41:29.298Z,9.74
2018-03-15T09:42:29.296Z,9.89
2018-03-15T09:43:29.298Z,9.87
2018-03-15T09:44:29.287Z,9.72
2018-03-15T09:45:29.307Z,9.76
2018-03-15T09:46:29.295Z,9.77
2018-03-15T09:47:29.289Z,9.77
2018-03-15T09:48:29.277Z,9.50
2018-03-15T09:49:29.270Z,9.51
2018-03-15T09:50:29.311Z,9.62
2018-03-15T09:51:29.274Z,9.61
2018-03-15T09:52:29.268Z,9.32
2018-03-15T09:53:29.265Z,9.32
2018-03-15T09:54:29.272Z,9.47
2018-03-15T09:55:29.265Z,9.40
2018-03-15T09:56:29.259Z,9.64
2018-03-15T09:57:29.268Z,9.77
2018-03-15T09:58:29.269Z,9.95
2018-03-15T09:59:29.264Z,10.20
2018-03-15T10:00:29.288Z,10.37
2018-03-15T10:01:29.275Z,10.72
2018-03-15T10:02:29.285Z,10.46
2018-03-15T10:03:29.244Z,10.17
2018-03-15T10:04:29.236Z,10.20
2018-03-15T10:05:29.233Z,10.22
2018-03-15T10:06:29.269Z,10.34
2018-03-15T10:07:29.235Z,10.40
2018-03-15T10:08:29.267Z,10.09
2018-03-15T10:09:29.237Z,10.12
2018-03-15T10:10:29.245Z,10.09
2018-03-15T10:11:29.215Z,10.30
2018-03-15T10:12:29.219Z,10.51
2018-03-15T10:13:29.221Z,10.23
2018-03-15T10:14:29.238Z,9.87
2018-03-15T10:15:29.214Z,9.64
2018-03-15T10:16:29.226Z,9.43
2018-03-15T10:17:29.205Z,9.32
2018-03-15T10:18:29.204Z,9.40
2018-03-15T10:19:29.202Z,9.39
2018-03-15T10:20:29.198Z,9.28
2018-03-15T10:21:29.208Z,9.28
2018-03-15T10:22:29.210Z,9.25
2018-03-15T10:23:29.225Z,9.39
2018-03-15T10:24:29.187Z,9.43
2018-03-15T10:25:29.226Z,9.51
2018-03-15T10:26:29.184Z,9.44
2018-03-15T10:27:29.212Z,9.36
2018-03-15T10:28:29.185Z,9.26
2018-03-15T10:29:29.180Z,9.28
2018-03-15T10:30:29.182Z,9.40
2018-03-15T10:31:29.173Z,9.37
2018-03-15T10:32:29.170Z,9.46
2018-03-15T10:33:29.172Z,9.74
2018-03-15T10:34:29.171Z,9.99
2018-03-15T10:35:29.169Z,10.31
2018-03-15T10:36:29.165Z,10.09
2018-03-15T10:37:29.164Z,9.74
2018-03-15T10:38:29.161Z,9.66
2018-03-15T10:39:29.163Z,9.79
2018-03-15T10:40:29.157Z,9.47
2018-03-15T10:41:29.153Z,9.47
2018-03-15T10:42:29.198Z,9.36
2018-03-15T10:43:29.148Z,9.29
2018-03-15T10:44:29.145Z,9.40
2018-03-15T10:45:29.146Z,9.46
2018-03-15T10:46:29.140Z,9.54
2018-03-15T10:47:29.141Z,9.40
2018-03-15T10:48:29.132Z,9.64
2018-03-15T10:49:29.149Z,9.69
2018-03-15T10:50:29.131Z,9.76
2018-03-15T10:51:29.123Z,9.83
2018-03-15T10:52:29.122Z,9.80
2018-03-15T10:53:29.124Z,9.74
2018-03-15T10:54:29.173Z,9.80
2018-03-15T10:55:29.118Z,9.65
2018-03-15T10:56:29.118Z,9.58
2018-03-15T10:57:29.135Z,9.62
2018-03-15T10:58:29.147Z,9.43
2018-03-15T10:59:29.105Z,9.47
2018-03-15T11:00:29.106Z,9.66
2018-03-15T11:01:29.101Z,9.73
2018-03-15T11:02:29.101Z,9.91
2018-03-15T11:03:29.102Z,9.98
2018-03-15T11:04:29.106Z,9.68
2018-03-15T11:05:29.090Z,9.58
2018-03-15T11:06:29.112Z,9.59
2018-03-15T11:07:29.100Z,9.54
2018-03-15T11:08:29.085Z,9.41
2018-03-15T11:09:29.108Z,9.76
2018-03-15T11:10:29.094Z,9.68
2018-03-15T11:11:29.078Z,9.79
2018-03-15T11:12:29.073Z,9.89
2018-03-15T11:13:29.081Z,10.09
2018-03-15T11:14:29.068Z,10.33
2018-03-15T11:15:29.065Z,10.10
2018-03-15T11:16:29.062Z,10.07
2018-03-15T11:17:29.055Z,10.13
2018-03-15T11:18:29.056Z,10.19
2018-03-15T11:19:29.051Z,10.34
2018-03-15T11:20:29.057Z,10.31
2018-03-15T11:21:29.041Z,10.37
2018-03-15T11:22:29.043Z,10.28
2018-03-15T11:23:29.045Z,10.19
2018-03-15T11:24:29.033Z,10.10
2018-03-15T11:25:29.035Z,10.01
2018-03-15T11:26:29.035Z,9.98
2018-03-15T11:27:29.031Z,9.95
2018-03-15T11:28:29.024Z,10.10
2018-03-15T11:29:29.021Z,10.33
2018-03-15T11:30:29.017Z,10.34
2018-03-15T11:31:29.036Z,10.49
2018-03-15T11:32:29.010Z,10.42
2018-03-15T11:33:29.015Z,10.37
2018-03-15T11:34:29.007Z,10.25
2018-03-15T11:35:29.002Z,10.37
2018-03-15T11:36:28.998Z,10.31
2018-03-15T11:37:29.053Z,10.10
2018-03-15T11:38:29.081Z,10.30
2018-03-15T11:39:29.024Z,10.10
2018-03-15T11:40:28.992Z,10.12
2018-03-15T11:41:28.986Z,10.13
2018-03-15T11:42:29.022Z,10.30
2018-03-15T11:43:28.977Z,10.40
2018-03-15T11:44:29.027Z,10.46
2018-03-15T11:45:28.973Z,10.46
2018-03-15T11:46:28.966Z,10.53
2018-03-15T11:47:28.969Z,10.46
2018-03-15T11:48:28.984Z,10.49
2018-03-15T11:49:28.962Z,10.67
2018-03-15T11:50:28.954Z,10.71
2018-03-15T11:51:28.954Z,10.69
2018-03-15T11:52:28.951Z,10.69
2018-03-15T11:53:28.947Z,10.84
2018-03-15T11:54:28.945Z,11.04
2018-03-15T11:55:28.949Z,11.05
2018-03-15T11:56:28.936Z,10.93
2018-03-15T11:57:28.932Z,10.96
2018-03-15T11:58:28.963Z,10.81
2018-03-15T11:59:28.933Z,10.87
2018-03-15T12:00:28.927Z,11.02
2018-03-15T12:01:28.919Z,11.18
2018-03-15T12:02:28.937Z,11.47
2018-03-15T12:03:28.914Z,11.32
2018-03-15T12:04:28.926Z,11.29
2018-03-15T12:05:28.912Z,11.27
2018-03-15T12:06:28.914Z,11.27
2018-03-15T12:07:28.906Z,11.11
2018-03-15T12:08:28.903Z,10.92
2018-03-15T12:09:28.900Z,10.89
2018-03-15T12:10:28.905Z,11.12
2018-03-15T12:11:28.897Z,11.10
2018-03-15T12:12:28.900Z,11.11
2018-03-15T12:13:28.895Z,11.11
2018-03-15T12:14:28.888Z,11.15
2018-03-15T12:15:28.881Z,11.18
2018-03-15T12:16:28.890Z,11.12
2018-03-15T12:17:28.876Z,11.02
2018-03-15T12:18:28.896Z,10.94
2018-03-15T12:19:28.870Z,10.84
2018-03-15T12:20:28.868Z,10.64
2018-03-15T12:21:28.872Z,10.64
2018-03-15T12:22:28.866Z,10.57
2018-03-15T12:23:28.867Z,10.69
2018-03-15T12:24:28.882Z,10.78
2018-03-15T12:25:28.855Z,10.79
2018-03-15T12:26:28.854Z,10.82
2018-03-15T12:27:28.846Z,10.93
2018-03-15T12:28:28.845Z,10.99
2018-03-15T12:29:28.843Z,10.89
2018-03-15T12:30:28.838Z,11.10
2018-03-15T12:31:28.835Z,11.36
2018-03-15T12:32:28.833Z,11.40
2018-03-15T12:33:28.825Z,11.40
2018-03-15T12:34:28.840Z,11.43
2018-03-15T12:35:28.826Z,11.63
2018-03-15T12:36:28.826Z,11.72
2018-03-15T12:37:28.818Z,11.62
2018-03-15T12:38:28.814Z,11.43
2018-03-15T12:39:28.815Z,11.44
2018-03-15T12:40:28.820Z,11.63
2018-03-15T12:41:28.837Z,11.55
2018-03-15T12:42:28.811Z,11.36
2018-03-15T12:43:28.793Z,11.35
2018-03-15T12:44:28.801Z,11.27
2018-03-15T12:45:28.789Z,11.14
2018-03-15T12:46:28.802Z,11.37
2018-03-15T12:47:28.794Z,11.40
2018-03-15T12:48:28.780Z,11.40
2018-03-15T12:49:28.778Z,11.40
2018-03-15T12:50:28.807Z,11.44
2018-03-15T12:51:28.771Z,11.43
2018-03-15T12:52:28.768Z,11.43
2018-03-15T12:53:28.759Z,11.51
2018-03-15T12:54:28.762Z,11.70
2018-03-15T12:55:28.778Z,11.75
2018-03-15T12:56:28.751Z,11.78
2018-03-15T12:57:28.805Z,11.95
2018-03-15T12:58:28.745Z,12.03
2018-03-15T12:59:28.740Z,12.00
2018-03-15T13:00:28.760Z,11.86
2018-03-15T13:01:28.732Z,11.77
2018-03-15T13:02:28.727Z,11.75
2018-03-15T13:03:28.727Z,11.88
2018-03-15T13:04:28.729Z,11.91
2018-03-15T13:05:28.728Z,11.97
2018-03-15T13:06:28.718Z,12.06
2018-03-15T13:07:28.717Z,12.04
2018-03-15T13:08:28.710Z,11.78
2018-03-15T13:09:28.705Z,11.60
2018-03-15T13:10:28.701Z,11.44
2018-03-15T13:11:28.698Z,11.47
2018-03-15T13:12:28.703Z,11.43
2018-03-15T13:13:28.696Z,11.52
2018-03-15T13:14:28.697Z,11.62